Time;durP1;ratioP1;P1;durP2;ratioP2;P2;SDS_P1;SDS_P2;PMS_P1;PMS_P2;Temp;Humidity;BMP_temperature;BMP_pressure;BME280_temperature;BME280_humidity;BME280_pressure;Samples;Min_cycle;Max_cycle;Signal;HPM_P1;HPM_P2
2021/06/22 02:31:09;;;;;;;39.80;11.43;;;;;;;25.78;57.87;101031.71;1772490;80;21580;-52
2021/06/22 02:33:37;;;;;;;31.97;7.75;;;;;;;25.65;58.14;101022.17;1758747;80;21030;-58
2021/06/22 02:57:26;;;;;;;25.92;8.05;;;;;;;25.09;60.77;100997.31;1761421;80;21605;-54
2021/06/22 02:59:55;;;;;;;16.10;5.28;;;;;;;25.08;61.48;101007.59;1755078;80;21085;-53
2021/06/22 03:02:23;;;;;;;13.83;6.17;;;;;;;25.10;61.96;101026.95;1744111;80;21070;-53
2021/06/22 03:04:50;;;;;;;10.60;4.45;;;;;;;25.12;62.04;101051.69;1740919;81;21065;-54
2021/06/22 03:07:17;;;;;;;8.25;3.87;;;;;;;25.15;61.93;101049.23;1743382;81;21086;-54
2021/06/22 03:09:44;;;;;;;5.05;3.20;;;;;;;25.17;61.57;101016.20;1753437;80;21568;-54
2021/06/22 03:12:11;;;;;;;7.83;3.77;;;;;;;25.17;61.09;101005.55;1748092;80;21093;-53
2021/06/22 03:14:50;;;;;;;7.65;3.17;;;;;;;25.18;60.89;101016.58;1691150;83;21085;-52
2021/06/22 03:17:20;;;;;;;4.40;2.35;;;;;;;25.19;60.69;101025.39;1670944;83;21693;-53
2021/06/22 03:19:48;;;;;;;2.92;2.62;;;;;;;25.21;60.47;101011.47;1704065;83;21209;-58
2021/06/22 03:22:15;;;;;;;5.00;2.47;;;;;;;25.22;60.38;101006.53;1668994;83;21068;-53
2021/06/22 03:24:44;;;;;;;2.08;1.80;;;;;;;25.22;60.26;101000.72;1638576;85;21053;-53
2021/06/22 03:27:11;;;;;;;2.10;1.90;;;;;;;25.24;60.03;101005.92;1690689;84;21112;-58
2021/06/22 03:29:39;;;;;;;2.10;1.90;;;;;;;25.22;60.01;101002.05;1691650;83;21056;-52
2021/06/22 03:32:08;;;;;;;6.75;2.50;;;;;;;25.21;60.11;100993.69;1697947;83;21138;-53
2021/06/22 03:34:36;;;;;;;3.67;2.47;;;;;;;25.20;60.14;100973.37;1677220;83;21038;-56
2021/06/22 03:37:04;;;;;;;3.12;1.90;;;;;;;25.20;60.21;100972.03;1696682;82;21425;-56
2021/06/22 03:39:34;;;;;;;3.70;2.40;;;;;;;25.20;60.26;100972.03;1612206;87;21574;-53
2021/06/22 03:42:01;;;;;;;3.10;1.72;;;;;;;25.18;60.50;100955.80;1590719;87;21534;-52
2021/06/22 03:44:28;;;;;;;3.98;2.12;;;;;;;25.18;60.72;100951.33;1630265;86;21034;-54
2021/06/22 03:46:59;;;;;;;3.08;1.77;;;;;;;25.20;60.67;100950.73;1633258;87;21098;-52
2021/06/22 03:49:27;;;;;;;4.15;2.12;;;;;;;25.20;60.84;100965.38;1636872;86;21050;-53
2021/06/22 03:51:54;;;;;;;5.08;1.77;;;;;;;25.21;61.05;100973.71;1635463;86;21094;-53
2021/06/22 03:54:21;;;;;;;2.87;1.62;;;;;;;25.21;61.15;100972.37;1638456;87;21070;-53
2021/06/22 03:56:50;;;;;;;2.75;1.60;;;;;;;25.25;61.19;100985.81;1636806;87;21054;-53
2021/06/22 03:59:18;;;;;;;3.45;1.60;;;;;;;25.27;61.37;100993.67;1626055;87;21078;-54
2021/06/22 04:01:45;;;;;;;2.10;1.42;;;;;;;25.29;61.54;100988.60;1682646;84;21107;-52
2021/06/22 04:04:12;;;;;;;4.35;1.87;;;;;;;25.31;61.57;100989.33;1687674;84;21132;-53
2021/06/22 04:06:49;;;;;;;4.20;2.10;;;;;;;25.34;61.58;101013.07;1631464;85;21541;-53
2021/06/22 04:09:24;;;;;;;4.25;2.33;;;;;;;25.38;61.57;101029.66;1633025;86;21092;-52
2021/06/22 04:11:49;;;;;;;4.80;1.90;;;;;;;25.41;61.37;101058.25;1668604;84;21074;-52
2021/06/22 04:14:16;;;;;;;3.33;2.37;;;;;;;25.45;61.25;101070.36;1689360;83;21015;-52
2021/06/22 04:16:46;;;;;;;3.80;2.02;;;;;;;25.47;61.23;101080.42;1693271;83;21053;-52
2021/06/22 04:19:13;;;;;;;3.58;2.00;;;;;;;25.50;61.25;101078.86;1700550;83;21554;-53
2021/06/22 04:21:42;;;;;;;3.15;2.02;;;;;;;25.53;61.26;101055.95;1707821;83;21554;-52
2021/06/22 04:24:28;;;;;;;4.85;2.00;;;;;;;25.53;61.28;101052.47;1698650;83;21101;-53
2021/06/22 04:26:57;;;;;;;14.30;9.23;;;;;;;25.53;61.53;101061.28;1690699;83;21577;-53
2021/06/22 04:29:24;;;;;;;4.60;3.75;;;;;;;25.55;61.67;101082.03;1689802;84;21039;-53
2021/06/22 04:31:52;;;;;;;6.45;2.55;;;;;;;25.50;62.14;101122.83;1671183;83;21085;-53
2021/06/22 04:34:19;;;;;;;8.85;2.65;;;;;;;25.60;61.90;101167.77;1700847;83;21054;-53
2021/06/22 04:36:46;;;;;;;8.10;2.65;;;;;;;25.64;61.37;101159.91;1707059;83;21009;-52
2021/06/22 04:39:12;;;;;;;7.83;2.65;;;;;;;25.60;59.78;101169.11;1690722;83;21062;-52
2021/06/22 04:41:40;;;;;;;8.68;2.90;;;;;;;25.55;58.12;101135.33;1690712;83;21108;-53
2021/06/22 04:44:06;;;;;;;14.68;4.92;;;;;;;25.52;57.28;101116.03;1742632;80;20999;-53
2021/06/22 04:46:33;;;;;;;18.98;4.20;;;;;;;25.51;57.46;101111.19;1744683;81;21109;-52
2021/06/22 04:49:00;;;;;;;13.95;3.95;;;;;;;25.45;57.69;101083.69;1739482;81;21562;-54
2021/06/22 04:51:27;;;;;;;8.80;2.83;;;;;;;25.41;57.85;101063.58;1761680;80;21071;-53
2021/06/22 04:53:53;;;;;;;8.45;3.15;;;;;;;25.38;57.91;101050.48;1751443;80;21045;-53
2021/06/22 04:56:24;;;;;;;9.05;2.98;;;;;;;25.38;58.00;101093.59;1769277;80;21026;-53
2021/06/22 04:58:52;;;;;;;10.30;3.72;;;;;;;25.38;58.05;101134.41;1756631;80;21624;-52
2021/06/22 05:01:19;;;;;;;9.63;3.58;;;;;;;25.37;58.19;101140.69;1738586;81;21081;-57
2021/06/22 05:03:46;;;;;;;7.78;3.00;;;;;;;25.36;58.27;101123.02;1742065;81;21050;-53
2021/06/22 05:06:12;;;;;;;8.40;2.90;;;;;;;25.35;58.46;101118.64;1747367;80;21478;-53
2021/06/22 05:08:39;;;;;;;8.63;2.90;;;;;;;25.34;58.42;101112.97;1744446;81;21035;-52
2021/06/22 05:11:06;;;;;;;4.15;2.08;;;;;;;25.31;58.58;101106.53;1743146;81;21070;-53
2021/06/22 05:13:34;;;;;;;3.75;1.57;;;;;;;25.29;58.48;101095.14;1742419;81;21563;-51
2021/06/22 05:16:02;;;;;;;4.55;1.80;;;;;;;25.28;58.36;101080.15;1734999;80;21022;-53
2021/06/22 05:18:28;;;;;;;4.37;2.60;;;;;;;25.28;58.28;101073.97;1770102;80;22488;-53
2021/06/22 05:20:55;;;;;;;3.90;1.15;;;;;;;25.29;58.13;101072.98;1739043;81;21037;-60
2021/06/22 05:23:22;;;;;;;2.30;0.90;;;;;;;25.28;58.36;101083.28;1747465;80;21055;-58
2021/06/22 05:25:49;;;;;;;2.62;0.68;;;;;;;25.25;58.25;101084.84;1747758;80;21070;-51
2021/06/22 05:28:15;;;;;;;2.12;0.88;;;;;;;25.24;58.39;101089.34;1747360;80;21042;-56
2021/06/22 05:30:42;;;;;;;0.98;0.88;;;;;;;25.24;58.09;101093.34;1738938;81;20991;-56
2021/06/22 05:33:09;;;;;;;1.87;1.02;;;;;;;25.21;58.03;101100.22;1744674;80;21030;-52
2021/06/22 05:35:36;;;;;;;2.77;1.00;;;;;;;25.20;58.16;101105.20;1747950;80;21121;-54
2021/06/22 05:38:03;;;;;;;3.25;1.10;;;;;;;25.19;57.78;101116.80;1758708;80;20999;-54
2021/06/22 05:40:30;;;;;;;2.40;1.20;;;;;;;25.18;57.61;101115.13;1762183;80;21723;-55
2021/06/22 05:42:57;;;;;;;2.15;1.45;;;;;;;25.18;57.53;101127.10;1760294;80;21094;-51
2021/06/22 05:45:23;;;;;;;1.50;1.10;;;;;;;25.15;57.27;101116.67;1747164;80;21015;-52
2021/06/22 05:47:50;;;;;;;1.50;1.22;;;;;;;25.14;57.19;101108.33;1765904;80;21526;-51
2021/06/22 05:50:17;;;;;;;3.80;1.10;;;;;;;25.12;56.88;101094.77;1744269;80;21062;-54
2021/06/22 05:52:45;;;;;;;2.90;1.07;;;;;;;25.06;56.47;101088.07;1765624;80;21050;-54
2021/06/22 05:55:16;;;;;;;2.00;0.98;;;;;;;25.03;56.74;101072.34;1756381;80;21089;-54
2021/06/22 05:57:47;;;;;;;1.92;0.80;;;;;;;25.02;56.98;101059.98;1742337;80;21124;-52
2021/06/22 06:00:16;;;;;;;7.00;1.05;;;;;;;25.01;56.86;101051.65;1700684;83;21007;-51
2021/06/22 06:02:43;;;;;;;2.05;0.80;;;;;;;25.01;57.14;101052.98;1696468;83;21117;-56
2021/06/22 06:05:11;;;;;;;0.82;0.80;;;;;;;25.03;57.18;101052.38;1692584;84;21039;-55
2021/06/22 06:07:38;;;;;;;1.25;1.00;;;;;;;25.07;57.09;101054.31;1672289;85;21026;-56
2021/06/22 06:10:06;;;;;;;3.17;0.95;;;;;;;25.11;57.49;101066.42;1688297;83;21043;-52
2021/06/22 06:12:33;;;;;;;1.50;1.07;;;;;;;25.19;57.45;101068.00;1687975;83;21117;-51
2021/06/22 06:15:00;;;;;;;1.50;1.00;;;;;;;25.27;57.45;101075.77;1693504;83;21047;-53
2021/06/22 06:17:29;;;;;;;2.50;1.95;;;;;;;25.35;57.46;101083.19;1675238;83;21164;-51
2021/06/22 06:19:55;;;;;;;2.30;1.70;;;;;;;25.40;57.32;101095.17;1696720;83;21082;-57
2021/06/22 06:22:22;;;;;;;1.40;1.20;;;;;;;25.46;57.34;101092.06;1689659;83;21551;-53
2021/06/22 06:24:49;;;;;;;1.65;1.32;;;;;;;25.52;57.32;101092.05;1676658;84;21142;-51
2021/06/22 06:27:26;;;;;;;1.40;1.20;;;;;;;25.56;57.33;101089.51;1679208;83;21586;-54
2021/06/22 06:29:59;;;;;;;4.85;1.90;;;;;;;25.63;57.23;101096.07;1651437;86;21113;-51
2021/06/22 06:32:24;;;;;;;2.30;1.27;;;;;;;25.71;56.84;101078.50;1627661;87;21866;-57
2021/06/22 06:34:51;;;;;;;3.35;1.30;;;;;;;25.37;57.70;101054.11;1670326;84;21617;-52
2021/06/22 06:37:20;;;;;;;3.47;1.70;;;;;;;25.31;57.87;101017.30;1707751;80;21061;-52
2021/06/22 06:39:47;;;;;;;3.83;1.52;;;;;;;25.27;57.99;101018.98;1759110;80;21059;-52
2021/06/22 06:42:14;;;;;;;1.65;1.17;;;;;;;25.24;58.24;101040.55;1743773;80;21577;-57
2021/06/22 06:44:40;;;;;;;2.10;1.20;;;;;;;25.22;58.43;101043.34;1748374;80;21062;-53
2021/06/22 06:47:08;;;;;;;2.47;1.10;;;;;;;25.22;58.35;101038.02;1754555;80;21767;-54
2021/06/22 06:49:35;;;;;;;1.05;0.98;;;;;;;25.21;58.38;101007.00;1757089;80;21065;-56
2021/06/22 06:52:04;;;;;;;5.35;1.40;;;;;;;25.21;58.61;100989.69;1733173;81;21047;-53
2021/06/22 06:54:32;;;;;;;2.65;1.25;;;;;;;25.19;58.23;100965.00;1749345;80;21018;-53
2021/06/22 06:56:59;;;;;;;8.48;1.35;;;;;;;25.20;58.27;100932.09;1746913;80;21553;-52
2021/06/22 06:59:26;;;;;;;5.87;1.12;;;;;;;25.23;58.16;100917.17;1742453;80;21057;-56
2021/06/22 07:01:53;;;;;;;3.45;1.27;;;;;;;25.26;58.12;100928.93;1745907;80;20967;-52
2021/06/22 07:04:20;;;;;;;2.98;1.40;;;;;;;25.32;57.85;100953.74;1765960;80;21069;-54
2021/06/22 07:06:47;;;;;;;2.87;1.15;;;;;;;25.37;57.67;100972.85;1737070;80;21050;-54
2021/06/22 07:09:14;;;;;;;2.12;1.20;;;;;;;25.45;57.75;100993.10;1737628;81;20982;-53
2021/06/22 07:11:42;;;;;;;2.55;1.22;;;;;;;25.51;57.35;100993.94;1753813;80;21038;-52
2021/06/22 07:14:08;;;;;;;2.45;1.40;;;;;;;25.63;57.17;101001.45;1751841;80;21098;-52
2021/06/22 07:16:35;;;;;;;2.83;1.20;;;;;;;25.70;57.02;101000.83;1745608;80;21067;-54
2021/06/22 07:19:03;;;;;;;2.33;1.30;;;;;;;25.76;56.64;100993.67;1758870;80;20982;-52
2021/06/22 07:21:29;;;;;;;1.20;1.10;;;;;;;25.81;56.38;100995.49;1753585;80;21038;-51
2021/06/22 07:23:57;;;;;;;1.95;1.00;;;;;;;25.84;55.63;100989.89;1744323;80;21061;-53
2021/06/22 07:26:23;;;;;;;2.22;1.22;;;;;;;25.91;55.69;100993.39;1742450;80;21053;-53
2021/06/22 07:28:51;;;;;;;4.58;1.00;;;;;;;26.01;55.30;100986.36;1762278;80;21146;-53
2021/06/22 07:31:18;;;;;;;3.30;1.55;;;;;;;26.08;55.20;100985.75;1751489;80;21007;-54
2021/06/22 07:33:49;;;;;;;4.03;1.75;;;;;;;26.14;54.88;100980.38;1769528;80;21039;-55
2021/06/22 07:36:13;;;;;;;2.20;1.35;;;;;;;26.21;54.98;100986.44;1745032;80;21050;-55
2021/06/22 07:38:40;;;;;;;5.95;1.72;;;;;;;26.29;55.19;100989.80;1754542;80;21136;-53
2021/06/22 07:41:07;;;;;;;3.52;2.02;;;;;;;26.38;55.37;100995.67;1742656;80;20996;-52
2021/06/22 07:43:33;;;;;;;4.67;1.55;;;;;;;26.47;55.51;100994.92;1757599;80;21014;-56
2021/06/22 07:46:00;;;;;;;4.75;1.52;;;;;;;26.58;55.33;100992.20;1757225;80;21391;-54
2021/06/22 07:48:27;;;;;;;4.35;1.72;;;;;;;26.69;55.12;100997.97;1748935;80;21049;-54
2021/06/22 07:50:54;;;;;;;2.58;1.50;;;;;;;26.77;54.85;101012.37;1744272;80;21039;-52
2021/06/22 07:53:21;;;;;;;3.60;1.77;;;;;;;26.86;54.99;101014.75;1754719;80;20963;-51
2021/06/22 07:55:48;;;;;;;2.75;1.10;;;;;;;26.91;54.68;101021.41;1755071;80;21577;-54
2021/06/22 07:58:14;;;;;;;2.00;1.37;;;;;;;26.91;54.69;101027.23;1756429;80;21490;-54
2021/06/22 08:03:19;;;;;;;5.87;1.82;;;;;;;26.92;55.15;101015.08;1684529;83;21093;-55
2021/06/22 08:05:49;;;;;;;3.47;1.72;;;;;;;26.99;55.39;101018.93;1700146;83;21042;-53
2021/06/22 08:08:18;;;;;;;5.10;1.65;;;;;;;27.07;55.18;101023.12;1727020;82;21037;-56
2021/06/22 08:10:47;;;;;;;1.65;1.30;;;;;;;27.16;54.90;101024.98;1692739;83;20986;-53
2021/06/22 08:13:15;;;;;;;3.47;1.40;;;;;;;27.24;54.50;101015.80;1710805;82;21034;-55
2021/06/22 08:15:42;;;;;;;2.00;1.40;;;;;;;27.31;53.96;101011.63;1719777;82;21037;-59
2021/06/22 08:18:09;;;;;;;5.08;2.37;;;;;;;27.37;54.48;101009.79;1709556;82;21069;-54
2021/06/22 08:20:38;;;;;;;3.75;1.80;;;;;;;27.47;54.08;101018.34;1706688;82;21065;-54
2021/06/22 08:23:05;;;;;;;2.58;1.55;;;;;;;27.62;53.77;101023.66;1718166;82;20987;-55
2021/06/22 08:25:33;;;;;;;2.27;1.65;;;;;;;27.70;54.09;101029.20;1713410;81;21034;-55
2021/06/22 08:28:00;;;;;;;2.42;1.47;;;;;;;27.79;53.92;101027.03;1710694;82;21569;-51
2021/06/22 08:30:27;;;;;;;2.42;1.65;;;;;;;27.87;53.70;101038.73;1720705;82;21049;-55
2021/06/22 08:32:54;;;;;;;3.62;1.75;;;;;;;27.97;53.30;101042.31;1711702;82;21094;-53
2021/06/22 08:35:21;;;;;;;3.33;1.67;;;;;;;28.16;53.81;101053.54;1686503;83;21031;-57
2021/06/22 08:37:48;;;;;;;3.95;1.67;;;;;;;28.16;53.81;101053.54;1691597;83;20983;-59
2021/06/22 08:40:15;;;;;;;5.65;2.47;;;;;;;28.29;53.67;101056.81;1700042;83;21014;-54
2021/06/22 08:42:42;;;;;;;3.60;2.20;;;;;;;28.39;53.83;101056.32;1690649;84;21060;-52
2021/06/22 08:45:12;;;;;;;3.10;1.85;;;;;;;28.50;53.48;101060.18;1693673;84;21082;-56
2021/06/22 08:47:39;;;;;;;4.15;1.95;;;;;;;28.61;53.27;101053.39;1723485;81;21034;-55
2021/06/22 08:50:08;;;;;;;3.92;1.70;;;;;;;28.68;53.01;101051.85;1756056;80;21025;-54
2021/06/22 08:52:36;;;;;;;2.37;1.50;;;;;;;28.77;52.76;101042.12;1770546;80;21085;-56
2021/06/22 08:55:07;;;;;;;3.15;1.55;;;;;;;28.89;52.60;101051.16;1752789;80;21061;-56
2021/06/22 08:57:35;;;;;;;3.87;1.47;;;;;;;28.98;51.98;101053.00;1720304;81;20997;-55
2021/06/22 09:00:04;;;;;;;4.50;1.32;;;;;;;29.05;51.67;101052.42;1725193;81;21538;-52
2021/06/22 09:02:34;;;;;;;2.05;1.50;;;;;;;29.11;51.74;101055.86;1710027;81;21848;-51
2021/06/22 09:05:01;;;;;;;2.90;1.98;;;;;;;29.20;51.80;101061.25;1712812;81;21016;-56
2021/06/22 09:07:50;;;;;;;3.22;1.80;;;;;;;29.30;52.04;101062.55;1717510;81;21002;-54
2021/06/22 09:10:26;;;;;;;2.45;1.37;;;;;;;29.39;52.36;101065.67;1704503;83;21061;-51
2021/06/22 09:12:54;;;;;;;3.00;1.50;;;;;;;29.50;51.69;101066.84;1648863;86;21032;-51
2021/06/22 09:15:29;;;;;;;3.55;1.92;;;;;;;29.54;50.90;101065.56;1661529;85;21065;-53
2021/06/22 09:17:57;;;;;;;5.47;1.50;;;;;;;29.59;50.83;101072.68;1658872;85;21127;-52
2021/06/22 09:20:42;;;;;;;5.97;1.67;;;;;;;29.60;50.51;101075.70;1653070;85;21059;-55
2021/06/22 09:23:18;;;;;;;2.12;1.40;;;;;;;29.61;50.51;101079.56;1604947;89;21055;-53
2021/06/22 09:25:47;;;;;;;3.85;1.92;;;;;;;29.64;50.71;101085.13;1603793;88;21565;-58
2021/06/22 09:28:16;;;;;;;3.70;1.95;;;;;;;29.69;50.72;101085.55;1603802;88;21105;-51
2021/06/22 09:30:46;;;;;;;6.42;1.82;;;;;;;29.74;50.63;101092.19;1603117;89;21723;-54
2021/06/22 09:33:40;;;;;;;4.75;1.55;;;;;;;29.78;50.56;101096.74;1603848;88;21569;-53
2021/06/22 09:36:21;;;;;;;3.58;1.70;;;;;;;29.81;50.19;101096.47;1539926;92;21085;-52
2021/06/22 09:38:54;;;;;;;7.37;2.77;;;;;;;29.83;50.20;101093.63;1545614;93;21034;-53
2021/06/22 09:41:32;;;;;;;2.83;1.67;;;;;;;29.84;50.36;101093.50;1540931;93;21550;-54
2021/06/22 09:44:12;;;;;;;2.25;1.30;;;;;;;29.85;50.78;101095.17;1541752;92;21079;-51
2021/06/22 09:46:48;;;;;;;1.67;1.23;;;;;;;29.84;51.22;101085.45;1499872;94;21102;-51
2021/06/22 09:49:25;;;;;;;4.10;1.47;;;;;;;29.83;51.59;101083.75;1499185;96;21645;-55
2021/06/22 09:52:08;;;;;;;1.80;1.50;;;;;;;29.84;51.78;101085.45;1499556;96;21079;-54
2021/06/22 09:54:43;;;;;;;2.92;1.37;;;;;;;29.84;51.95;101080.08;1456477;98;21143;-52
2021/06/22 09:57:18;;;;;;;3.15;1.70;;;;;;;29.85;51.76;101079.08;1458178;97;21132;-52
2021/06/22 09:59:52;;;;;;;4.45;1.72;;;;;;;29.85;51.83;101076.39;1463655;97;21096;-54
2021/06/22 10:02:23;;;;;;;3.25;1.62;;;;;;;29.86;51.76;101080.78;1508668;90;21073;-55
2021/06/22 10:04:53;;;;;;;3.60;2.00;;;;;;;29.85;52.24;101081.76;1572456;90;21030;-54
2021/06/22 10:07:23;;;;;;;2.67;1.73;;;;;;;29.85;52.32;101081.76;1570994;90;21115;-52
2021/06/22 10:09:59;;;;;;;4.67;2.10;;;;;;;29.87;52.20;101076.23;1569348;90;21108;-54
2021/06/22 10:12:27;;;;;;;2.45;1.32;;;;;;;29.88;52.21;101073.42;1580886;88;21717;-55
2021/06/22 10:15:02;;;;;;;3.98;1.30;;;;;;;29.91;52.19;101078.48;1611481;88;21631;-53
2021/06/22 10:17:31;;;;;;;3.27;1.52;;;;;;;29.91;52.06;101073.11;1606930;88;21038;-52
2021/06/22 10:20:01;;;;;;;3.15;1.30;;;;;;;29.92;51.78;101068.59;1618339;86;21573;-55
2021/06/22 10:22:31;;;;;;;3.00;1.62;;;;;;;29.91;51.92;101075.79;1586847;88;21549;-54
2021/06/22 10:24:59;;;;;;;4.80;1.80;;;;;;;29.93;51.63;101072.95;1621007;87;21344;-52
2021/06/22 10:27:27;;;;;;;5.03;1.85;;;;;;;29.95;51.81;101079.02;1623572;87;21701;-49
2021/06/22 10:29:58;;;;;;;4.25;1.42;;;;;;;29.98;51.91;101079.58;1616473;87;21078;-52
2021/06/22 10:32:27;;;;;;;4.55;1.55;;;;;;;30.04;52.13;101076.30;1624473;87;21025;-55
2021/06/22 10:35:04;;;;;;;4.25;1.95;;;;;;;30.08;52.26;101081.70;1614512;87;21089;-54
2021/06/22 10:37:42;;;;;;;6.30;2.00;;;;;;;30.14;52.18;101075.73;1614659;87;21089;-53
2021/06/22 10:40:24;;;;;;;6.35;2.17;;;;;;;30.19;52.52;101076.11;1622605;87;21345;-52
2021/06/22 10:42:56;;;;;;;9.50;2.30;;;;;;;30.24;51.90;101074.31;1570631;89;21083;-52
2021/06/22 10:45:22;;;;;;;7.05;2.30;;;;;;;30.27;51.77;101077.56;1531005;93;21133;-54
2021/06/22 10:47:50;;;;;;;5.03;2.10;;;;;;;30.28;51.53;101081.92;1520664;92;21140;-55
2021/06/22 10:50:28;;;;;;;4.20;2.05;;;;;;;30.28;51.35;101073.02;1523892;92;21095;-53
2021/06/22 10:53:08;;;;;;;6.75;2.50;;;;;;;30.27;51.37;101080.25;1522109;92;21623;-52
2021/06/22 10:55:47;;;;;;;3.08;2.10;;;;;;;30.26;51.33;101078.55;1517161;92;21895;-56
2021/06/22 10:58:16;;;;;;;3.08;2.27;;;;;;;30.27;51.74;101080.25;1549780;89;21119;-57
2021/06/22 11:01:01;;;;;;;7.45;2.20;;;;;;;30.31;51.53;101085.69;1579138;89;21110;-54
2021/06/22 11:03:32;;;;;;;6.37;2.40;;;;;;;30.35;51.27;101083.05;1609436;87;21045;-53
2021/06/22 11:06:12;;;;;;;5.00;2.27;;;;;;;30.36;51.27;101086.06;1636969;86;21582;-51
2021/06/22 11:08:43;;;;;;;7.67;2.90;;;;;;;30.37;51.22;101081.05;1632156;86;21176;-52
2021/06/22 11:11:15;;;;;;;4.05;2.17;;;;;;;30.40;51.48;101080.73;1630372;86;21719;-52
2021/06/22 11:13:55;;;;;;;5.42;2.37;;;;;;;30.45;51.91;101081.13;1621977;86;21055;-54
2021/06/22 11:16:25;;;;;;;4.40;2.45;;;;;;;30.51;51.95;101082.34;1666304;84;21061;-52
2021/06/22 11:19:05;;;;;;;6.67;4.00;;;;;;;30.59;51.71;101084.26;1666997;83;21593;-53
2021/06/22 11:21:46;;;;;;;10.23;4.45;;;;;;;30.66;51.47;101089.38;1627605;86;21043;-55
2021/06/22 11:24:23;;;;;;;5.22;3.20;;;;;;;30.71;50.83;101084.39;1660042;84;21002;-53
2021/06/22 11:29:43;;;;;;;11.30;6.53;;;;;;;30.82;49.61;101085.48;1567637;89;21105;-52
2021/06/22 11:32:10;;;;;;;3.08;2.80;;;;;;;30.84;49.35;101088.85;1567139;89;21041;-51
2021/06/22 11:34:56;;;;;;;2.35;2.10;;;;;;;30.83;49.06;101092.55;1573702;89;21115;-52
2021/06/22 11:37:24;;;;;;;3.40;2.37;;;;;;;30.81;48.94;101091.87;1569075;89;21112;-55
2021/06/22 11:40:13;;;;;;;4.15;2.85;;;;;;;30.78;48.80;101095.70;1627612;85;21152;-52
2021/06/22 11:42:40;;;;;;;3.72;2.77;;;;;;;30.74;49.03;101093.47;1655023;85;21107;-53
2021/06/22 11:45:17;;;;;;;5.50;2.60;;;;;;;30.72;49.36;101092.78;1650789;85;21037;-53
2021/06/22 11:47:48;;;;;;;9.05;4.10;;;;;;;30.67;49.24;101095.08;1638497;86;21077;-54
2021/06/22 11:50:23;;;;;;;;;;;;;;;30.61;48.89;101094.34;1644190;85;21064;-61
2021/06/22 11:53:01;;;;;;;3.37;2.62;;;;;;;30.55;48.99;101101.19;1619702;85;20212;-57
2021/06/22 11:55:27;;;;;;;4.05;2.20;;;;;;;30.49;49.36;101106.68;1593828;88;21740;-54
2021/06/22 11:57:57;;;;;;;6.53;2.55;;;;;;;30.45;49.61;101117.38;1604818;89;21010;-58
2021/06/22 12:00:28;;;;;;;3.10;1.90;;;;;;;30.41;49.85;101116.00;1597784;88;21077;-54
2021/06/22 12:02:58;;;;;;;3.62;2.47;;;;;;;30.39;49.62;101117.14;1561769;90;21673;-53
2021/06/22 12:05:28;;;;;;;4.90;3.08;;;;;;;30.36;49.83;101122.31;1556042;90;21567;-55
2021/06/22 12:08:00;;;;;;;3.05;2.50;;;;;;;30.34;49.96;101121.62;1497486;94;21112;-53
2021/06/22 12:10:44;;;;;;;4.15;2.10;;;;;;;30.34;49.70;101122.96;1497295;93;21037;-54
2021/06/22 12:13:11;;;;;;;5.78;3.62;;;;;;;30.33;49.81;101123.97;1483572;92;21113;-58
2021/06/22 12:15:41;;;;;;;6.62;3.40;;;;;;;30.33;49.81;101132.52;1506947;93;21522;-59
2021/06/22 12:18:09;;;;;;;4.58;2.02;;;;;;;30.32;49.91;101137.03;1480548;94;21128;-52
2021/06/22 12:20:40;;;;;;;6.42;2.15;;;;;;;30.32;49.84;101137.03;1482570;94;21117;-56
2021/06/22 12:23:15;;;;;;;4.42;2.70;;;;;;;30.29;50.23;101135.13;1480745;94;21618;-54
2021/06/22 12:25:45;;;;;;;4.90;3.10;;;;;;;30.27;50.03;101137.97;1515680;92;21068;-54
2021/06/22 12:28:13;;;;;;;4.53;2.60;;;;;;;30.25;49.92;101139.92;1515701;92;21105;-56
2021/06/22 12:30:44;;;;;;;6.35;4.37;;;;;;;30.23;50.02;101145.13;1523900;91;21094;-58
2021/06/22 12:33:23;;;;;;;3.45;2.90;;;;;;;30.21;50.05;101138.53;1497614;94;21134;-55
2021/06/22 12:35:54;;;;;;;3.92;2.95;;;;;;;30.20;50.01;101142.23;1493953;93;21084;-54
2021/06/22 12:38:22;;;;;;;5.72;2.12;;;;;;;30.20;50.17;101142.23;1491310;94;21173;-57
2021/06/22 12:41:03;;;;;;;5.12;2.40;;;;;;;30.19;50.08;101141.87;1492384;94;21607;-56
2021/06/22 12:43:48;;;;;;;6.42;2.22;;;;;;;30.18;50.08;101142.88;1482905;93;21384;-54
2021/06/22 12:46:19;;;;;;;6.53;2.52;;;;;;;30.15;50.26;101147.19;1480541;95;21123;-52
2021/06/22 12:48:48;;;;;;;6.83;2.60;;;;;;;30.14;50.20;101140.64;1491787;93;21141;-55
2021/06/22 12:51:16;;;;;;;10.30;2.95;;;;;;;30.14;50.20;101152.23;1482877;95;21640;-52
2021/06/22 12:53:45;;;;;;;5.72;2.17;;;;;;;30.14;50.09;101150.89;1469289;94;21113;-52
2021/06/22 12:56:15;;;;;;;5.62;2.55;;;;;;;30.14;50.00;101154.91;1482478;95;21159;-52
2021/06/22 12:58:54;;;;;;;4.47;2.40;;;;;;;30.13;49.98;101154.55;1484248;95;21195;-52
2021/06/22 13:01:41;;;;;;;7.87;2.80;;;;;;;30.10;49.83;101148.64;1508015;93;21124;-52
2021/06/22 13:04:10;;;;;;;7.62;3.35;;;;;;;30.08;49.99;101139.41;1532230;90;21066;-54
2021/06/22 13:06:40;;;;;;;7.47;3.08;;;;;;;30.06;50.16;101144.08;1605848;86;21067;-53
2021/06/22 13:09:14;;;;;;;4.00;2.55;;;;;;;30.03;50.08;101139.00;1629426;86;21544;-54
2021/06/22 13:14:25;;;;;;;10.10;4.22;;;;;;;30.02;50.27;101137.33;1596398;89;21526;-55
2021/06/22 13:17:02;;;;;;;6.50;3.10;;;;;;;30.02;50.28;101126.59;1577637;89;21090;-52
2021/06/22 13:19:31;;;;;;;7.33;2.05;;;;;;;30.02;50.31;101123.91;1572612;90;21134;-53
2021/06/22 13:22:03;;;;;;;4.08;2.40;;;;;;;30.03;49.92;101125.58;1575995;89;21538;-54
2021/06/22 13:24:40;;;;;;;4.08;2.20;;;;;;;30.03;50.01;101128.27;1567751;90;21395;-54
2021/06/22 13:27:11;;;;;;;4.30;2.27;;;;;;;30.01;50.20;101122.20;1562811;89;21071;-53
2021/06/22 13:29:54;;;;;;;;;;;;;;;30.02;50.28;101117.69;1517032;92;21095;-54
2021/06/22 13:32:35;;;;;;;4.92;3.17;;;;;;;30.02;50.18;101115.00;1550600;90;20308;-54
2021/06/22 13:35:05;;;;;;;4.15;2.58;;;;;;;29.99;50.16;101101.37;1541258;90;21068;-60
2021/06/22 13:37:33;;;;;;;5.65;2.75;;;;;;;29.97;50.17;101093.97;1538986;91;21170;-54
2021/06/22 13:40:05;;;;;;;8.68;3.37;;;;;;;29.97;50.25;101103.37;1540434;91;21073;-52
2021/06/22 13:42:34;;;;;;;8.80;2.67;;;;;;;29.96;50.06;101111.58;1537545;91;21180;-53
2021/06/22 13:45:12;;;;;;;5.35;2.33;;;;;;;29.94;50.11;101117.09;1536647;91;21044;-56
2021/06/22 13:47:43;;;;;;;3.65;2.17;;;;;;;29.92;50.19;101107.02;1544092;91;21070;-57
2021/06/22 13:50:24;;;;;;;3.87;2.05;;;;;;;29.89;50.28;101115.83;1552598;92;21097;-57
2021/06/22 13:52:54;;;;;;;6.10;2.55;;;;;;;29.84;50.24;101114.96;1532857;92;21092;-53
2021/06/22 13:55:32;;;;;;;8.33;6.47;;;;;;;29.77;50.13;101113.84;1526384;92;21072;-51
2021/06/22 13:58:07;;;;;;;5.08;2.62;;;;;;;29.70;50.18;101110.02;1532121;92;21099;-51
2021/06/22 14:00:37;;;;;;;6.58;2.12;;;;;;;29.63;50.23;101115.64;1469328;96;21194;-52
2021/06/22 14:03:06;;;;;;;4.95;1.95;;;;;;;29.58;50.43;101117.91;1422621;99;21159;-52
2021/06/22 14:05:35;;;;;;;9.45;3.77;;;;;;;29.51;50.62;101116.81;1423467;99;21163;-55
2021/06/22 14:08:04;;;;;;;5.58;4.05;;;;;;;29.45;50.79;101118.74;1414954;98;21647;-55
2021/06/22 14:10:32;;;;;;;5.92;2.95;;;;;;;29.41;50.86;101114.63;1424461;99;21147;-58
2021/06/22 14:13:02;;;;;;;5.62;2.60;;;;;;;29.36;50.87;101118.26;1448018;97;21594;-53
2021/06/22 14:15:30;;;;;;;8.20;3.08;;;;;;;29.32;50.99;101110.16;1441616;98;21172;-53
2021/06/22 14:17:57;;;;;;;5.83;2.10;;;;;;;29.30;51.23;101109.45;1444804;98;21370;-53
2021/06/22 14:20:25;;;;;;;6.00;2.90;;;;;;;29.28;51.04;101110.09;1424330;100;21209;-53
2021/06/22 14:22:53;;;;;;;8.80;3.72;;;;;;;29.26;51.21;101113.42;1441378;98;21150;-53
2021/06/22 14:25:20;;;;;;;4.83;2.50;;;;;;;29.24;51.47;101110.04;1437989;98;21747;-52
2021/06/22 14:27:47;;;;;;;5.87;2.33;;;;;;;29.23;51.28;101097.61;1453473;94;21142;-53
2021/06/22 14:30:15;;;;;;;8.13;2.08;;;;;;;29.24;51.43;101088.59;1450259;97;21122;-53
2021/06/22 14:32:42;;;;;;;5.17;2.08;;;;;;;29.25;51.30;101090.27;1456019;96;21182;-53
2021/06/22 14:35:13;;;;;;;8.03;2.33;;;;;;;29.25;51.32;101091.61;1453733;96;21652;-53
2021/06/22 14:37:39;;;;;;;8.43;3.02;;;;;;;29.25;51.41;101085.77;1489368;91;21128;-57